1968 Tropical Low BEATIE (1968354S12108)


IBTrACS version v04r00. Visit IBTrACS website for data access.
Please direct all questions to the IBTrACS Q and A forum

Storm track - Intensity - Wind Radii - Intensity Data - Source Data - All data

Summary Information

Storm ID 1968354S12108
Start Dec 18 23Z
Max Intensity 25 kt (Dec 19 00Z)
End Dec 24 23Z
ATCF IDs ,SH071969
Track status Best track data.

Storm track plot

Map of storm track

Intensity plots

Map of storm track

Radial wind information

No radial wind information for this storm


Position and Intensity Table

BASIN ISO_TIME_________ NATURE LAT LON WMO PRES BOM PRES NEUMANN WIND NEUMANN PRES
degrees north degrees east mb mb kts mb
SI 1968-12-18 23:00:00 NR -12.40 108.40
SI 1968-12-19 00:00:00 TS -12.53 108.34 25 1001
SI 01:00:00 TS -12.60 108.29 1001 1001 25 1001
SI 03:00:00 TS -12.64 108.25 25 1001
SI 06:00:00 TS -12.69 108.22 25 1001
SI 09:00:00 TS -12.74 108.20 25 1001
SI 11:00:00 TS -12.75 108.20 25 1001
SI 12:00:00 TS -12.76 108.20 25 1001
SI 15:00:00 TS -12.79 108.17 25 1001
SI 18:00:00 TS -12.81 108.15 25 1001
SI 21:00:00 TS -12.82 108.14 25 1001
SI 23:00:00 TS -12.82 108.14 25 1001
SI 1968-12-20 00:00:00 TS -12.83 108.13 25 1001
SI 01:00:00 TS -12.85 108.12 1001 1001 25 1001
SI 03:00:00 TS -12.87 108.10 25 1001
SI 06:00:00 TS -12.90 108.07 25 1001
SI 09:00:00 TS -12.93 108.07 25 1001
SI 11:00:00 TS -12.94 108.06 25 1001
SI 12:00:00 TS -12.95 108.06 25 1001
SI 15:00:00 TS -12.98 108.04 25 1001
SI 18:00:00 TS -12.99 108.02 25 1001
SI 21:00:00 TS -13.00 108.02 25 1001
SI 23:00:00 TS -13.00 108.02 25 1001
SI 1968-12-21 00:00:00 TS -13.00 108.02 25 1001
SI 01:00:00 TS -13.01 108.01 1001 1001 25 1001
SI 03:00:00 TS -13.02 108.00 25 1001
SI 06:00:00 TS -13.04 107.99 25 1001
SI 09:00:00 TS -13.05 107.99 25 1001
SI 11:00:00 TS -13.05 107.99 25 1001
SI 12:00:00 TS -13.05 107.99 25 1001
SI 15:00:00 TS -13.07 107.97 25 1001
SI 18:00:00 TS -13.10 107.94 25 1001
SI 21:00:00 TS -13.10 107.90 25 1001
SI 23:00:00 TS -13.10 107.85 25 1001
SI 1968-12-22 00:00:00 TS -13.10 107.83 25 1001
SI 01:00:00 TS -13.10 107.81 1001 1001 25 1001
SI 03:00:00 TS -13.10 107.75 25 1001
SI 06:00:00 TS -13.09 107.65 25 1001
SI 09:00:00 TS -13.07 107.54 25 1001
SI 11:00:00 TS -13.06 107.47 25 1001
SI 12:00:00 TS -13.05 107.44 25 1002
SI 15:00:00 TS -13.02 107.36 25 1002
SI 18:00:00 TS -13.00 107.27 25 1002
SI 21:00:00 TS -12.98 107.15 25 1002
SI 23:00:00 TS -12.96 107.05 25 1002
SI 1968-12-23 00:00:00 TS -12.95 107.00 25 1003
SI 01:00:00 TS -12.93 106.94 1003 1003 25 1003
SI 03:00:00 TS -12.90 106.82 25 1003
SI 06:00:00 TS -12.85 106.63 25 1003
SI 09:00:00 TS -12.81 106.45 25 1003
SI 11:00:00 TS -12.80 106.33 25 1003
SI 12:00:00 TS -12.79 106.26 25 1003
SI 15:00:00 TS -12.79 106.08 25 1003
SI 18:00:00 TS -12.82 105.90 25 1003
SI 21:00:00 TS -12.88 105.67
SI 23:00:00 TS -12.94 105.44
SI 1968-12-24 00:00:00 TS -12.99 105.24
SI 01:00:00 TS -13.07 104.98 1003 1003
SI 03:00:00 TS -13.27 104.63
SI 06:00:00 TS -13.59 104.18
SI 09:00:00 TS -13.91 103.67
SI 11:00:00 TS -14.11 103.29
SI 12:00:00 TS -14.19 103.11
SI 15:00:00 TS -14.41 102.55
SI 18:00:00 TS -14.59 101.99
SI 21:00:00 NR -14.72 101.40
SI 23:00:00 NR -14.80 101.00

Source Information

Agency Information
USA bsh071969.txt
TOKYO
CMA
HKO
NEWDELHI
REUNION
BOM IDCKMSTM0S.csv:Line=5209:BEATIE
NADI
WELLINGTON
DS824 s_hem.dat:1077:07P
TD9636 cons_worldwide_trop_cyclone_18710101-19891231-006:Line=8046
TD9635
NEUMANN tracks.sh:Storm=229:BEATIE:BSH0769:BM374
MLC

All available IBTrACS Data

SEASON BASIN SUBBASIN ISO_TIME_________ NATURE LAT LON WMO PRES WMO AGENCY DIST2LAND LANDFALL IFLAG USA AGENCY USA ATCF_ID USA LAT USA LON USA SSHS BOM LAT BOM LON BOM PRES BOM PRES_METHOD DS824 LAT DS824 LON DS824 STAGE TD9636 LAT TD9636 LON TD9636 STAGE NEUMANN LAT NEUMANN LON NEUMANN CLASS NEUMANN WIND NEUMANN PRES STORM SPEED STORM DIR
Year degrees north degrees east mb km km degrees north degrees east 1 degrees north degrees east mb degrees north degrees east degrees north degrees east degrees north degrees east kts mb kts degrees
1969 SI WA 1968-12-18 23:00:00 NR -12.40 108.40 515 515 __________O___ -1 -12.40 108.40 1 9 201
1969 SI WA 1968-12-19 00:00:00 TS -12.53 108.34 526 526 O________OP_O_ jtwc_sh SH071969 -12.40 108.40 -1 -12.40 108.40 TC -12.42 108.39 1 -13.00 108.10 TC 25 1001 7 209
1969 SI WA 01:00:00 TS -12.60 108.29 1001 bom 537 537 P_____O__PP_P_ SH071969 -12.42 108.38 -1 -13.00 108.00 1001 -12.42 108.38 TC -12.44 108.38 1 -13.00 108.10 TC 25 1001 3 215
1969 SI WA 03:00:00 TS -12.64 108.25 537 537 P_____P__PP_P_ SH071969 -12.45 108.34 -1 -13.00 108.00 -12.45 108.34 TC -12.48 108.37 1 -13.00 108.10 TC 25 1001 1 215
1969 SI WA 06:00:00 TS -12.69 108.22 549 549 O_____P__OP_O_ jtwc_sh SH071969 -12.50 108.30 -1 -13.00 108.00 -12.50 108.30 TC -12.53 108.34 1 -13.00 108.10 TC 25 1001 1 205
1969 SI WA 09:00:00 TS -12.74 108.20 549 549 P_____P__PP_P_ SH071969 -12.55 108.30 -1 -13.00 108.00 -12.55 108.30 TC -12.58 108.32 1 -13.00 108.10 TC 25 1001 1 203
1969 SI WA 11:00:00 TS -12.75 108.20 560 560 P_____P__PO_P_ SH071969 -12.58 108.30 -1 -13.00 108.00 -12.58 108.30 TC -12.60 108.30 1 -13.00 108.10 TC 25 1001 1 0
1969 SI WA 12:00:00 TS -12.76 108.20 560 560 O_____P__OP_O_ jtwc_sh SH071969 -12.60 108.30 -1 -13.00 108.00 -12.60 108.30 TC -12.61 108.29 1 -13.00 108.10 TC 25 1001 1 201
1969 SI WA 15:00:00 TS -12.79 108.17 560 560 P_____P__PP_P_ SH071969 -12.66 108.25 -1 -13.00 108.00 -12.66 108.25 TC -12.64 108.27 1 -13.00 108.10 TC 25 1001 1 231
1969 SI WA 18:00:00 TS -12.81 108.15 561 561 O_____P__OP_O_ jtwc_sh SH071969 -12.70 108.20 -1 -13.00 108.00 -12.70 108.20 TC -12.66 108.24 1 -13.00 108.10 TC 25 1001 0 229
1969 SI WA 21:00:00 TS -12.82 108.14 561 561 P_____P__PP_P_ SH071969 -12.70 108.20 -1 -13.00 108.00 -12.70 108.20 TC -12.68 108.22 1 -13.00 108.10 TC 25 1001 0 0
1969 SI WA 23:00:00 TS -12.82 108.14 561 561 P_____P__PO_P_ SH071969 -12.70 108.20 -1 -13.00 108.00 -12.70 108.20 TC -12.70 108.20 1 -13.00 108.10 TC 25 1001 0 0
1969 SI WA 1968-12-20 00:00:00 TS -12.83 108.13 561 561 O_____P__OP_O_ jtwc_sh SH071969 -12.70 108.20 -1 -13.00 108.00 -12.70 108.20 TC -12.71 108.19 1 -13.00 108.10 TC 25 1001 1 0
1969 SI WA 01:00:00 TS -12.85 108.12 1001 bom 561 561 P_____O__PP_P_ SH071969 -12.71 108.19 -1 -13.00 108.00 1001 -12.71 108.19 TC -12.73 108.18 1 -13.00 108.10 TC 25 1001 1 227
1969 SI WA 03:00:00 TS -12.87 108.10 572 572 P_____P__PP_P_ SH071969 -12.74 108.15 -1 -13.00 108.00 -12.74 108.15 TC -12.76 108.17 1 -13.00 108.10 TC 25 1001 1 213
1969 SI WA 06:00:00 TS -12.90 108.07 572 572 O_____P__OP_O_ jtwc_sh SH071969 -12.80 108.10 -1 -13.00 108.00 -12.80 108.10 TC -12.82 108.14 1 -13.00 108.10 TC 25 1001 1 211
1969 SI WA 09:00:00 TS -12.93 108.07 572 572 P_____P__PP_P_ SH071969 -12.85 108.10 -1 -13.00 108.00 -12.85 108.10 TC -12.87 108.12 1 -13.00 108.10 TC 25 1001 1 0
1969 SI WA 11:00:00 TS -12.94 108.06 572 572 P_____P__PO_P_ SH071969 -12.88 108.10 -1 -13.00 108.00 -12.88 108.10 TC -12.90 108.10 1 -13.00 108.10 TC 25 1001 0 0
1969 SI WA 12:00:00 TS -12.95 108.06 583 583 O_____P__OP_O_ jtwc_sh SH071969 -12.90 108.10 -1 -13.00 108.00 -12.90 108.10 TC -12.91 108.09 1 -13.00 108.10 TC 25 1001 1 217
1969 SI WA 15:00:00 TS -12.98 108.04 584 584 P_____P__PP_P_ SH071969 -12.96 108.05 -1 -13.00 108.00 -12.96 108.05 TC -12.94 108.07 1 -13.00 108.10 TC 25 1001 1 221
1969 SI WA 18:00:00 TS -12.99 108.02 584 584 O_____P__OP_O_ jtwc_sh SH071969 -13.00 108.00 -1 -13.00 108.00 -13.00 108.00 TC -12.96 108.04 1 -13.00 108.10 TC 25 1001 0 0
1969 SI WA 21:00:00 TS -13.00 108.02 584 584 P_____P__PP_P_ SH071969 -13.00 108.00 -1 -13.00 108.00 -13.00 108.00 TC -12.99 108.02 1 -13.00 108.10 TC 25 1001 0 0
1969 SI WA 23:00:00 TS -13.00 108.02 584 584 P_____P__PO_P_ SH071969 -13.00 108.00 -1 -13.00 108.00 -13.00 108.00 TC -13.00 108.00 1 -13.00 108.10 TC 25 1001 0 0
1969 SI WA 1968-12-21 00:00:00 TS -13.00 108.02 584 584 O_____P__OP_O_ jtwc_sh SH071969 -13.00 108.00 -1 -13.00 108.00 -13.00 108.00 TC -13.01 107.99 1 -13.00 108.10 TC 25 1001 0 0
1969 SI WA 01:00:00 TS -13.01 108.01 1001 bom 584 584 P_____O__PP_P_ SH071969 -13.01 107.99 -1 -13.00 108.00 1001 -13.01 107.99 TC -13.02 107.99 1 -13.00 108.10 TC 25 1001 1 0
1969 SI WA 03:00:00 TS -13.02 108.00 584 584 P_____P__PP_P_ SH071969 -13.05 107.95 -1 -13.00 108.01 -13.05 107.95 TC -13.03 107.97 1 -13.00 108.10 TC 25 1001 1 205
1969 SI WA 06:00:00 TS -13.04 107.99 584 584 O_____P__OP_O_ jtwc_sh SH071969 -13.10 107.90 -1 -13.00 108.03 -13.10 107.90 TC -13.06 107.95 1 -13.00 108.10 TC 25 1001 0 0
1969 SI WA 09:00:00 TS -13.05 107.99 584 584 P_____P__PP_P_ SH071969 -13.10 107.90 -1 -13.00 108.05 -13.10 107.90 TC -13.08 107.92 1 -13.00 108.10 TC 25 1001 0 0
1969 SI WA 11:00:00 TS -13.05 107.99 584 584 P_____P__PO_P_ SH071969 -13.10 107.90 -1 -13.00 108.06 -13.10 107.90 TC -13.10 107.90 1 -13.00 108.10 TC 25 1001 0 0
1969 SI WA 12:00:00 TS -13.05 107.99 595 595 O_____P__OP_O_ jtwc_sh SH071969 -13.10 107.90 -1 -13.00 108.06 -13.10 107.90 TC -13.11 107.89 1 -13.00 108.10 TC 25 1001 0 0
1969 SI WA 15:00:00 TS -13.07 107.97 595 595 P_____P__PP_P_ SH071969 -13.15 107.86 -1 -13.00 108.07 -13.15 107.86 TC -13.14 107.85 1 -13.00 108.12 TC 25 1001 1 218
1969 SI WA 18:00:00 TS -13.10 107.94 596 596 O_____P__OP_O_ jtwc_sh SH071969 -13.20 107.80 -1 -13.00 108.07 -13.20 107.80 TC -13.17 107.81 1 -13.00 108.10 TC 25 1001 1 246
1969 SI WA 21:00:00 TS -13.10 107.90 596 596 P_____P__PP_P_ SH071969 -13.21 107.76 -1 -13.00 108.05 -13.21 107.76 TC -13.19 107.75 1 -13.00 108.02 TC 25 1001 1 266
1969 SI WA 23:00:00 TS -13.10 107.85 596 596 P_____P__PO_P_ SH071969 -13.20 107.72 -1 -13.00 108.03 -13.20 107.72 TC -13.20 107.70 1 -13.00 107.94 TC 25 1001 1 272
1969 SI WA 1968-12-22 00:00:00 TS -13.10 107.83 597 597 O_____P__OP_O_ jtwc_sh SH071969 -13.20 107.70 -1 -13.00 108.02 -13.20 107.70 TC -13.20 107.67 1 -13.00 107.90 TC 25 1001 1 271
1969 SI WA 01:00:00 TS -13.10 107.81 1001 bom 597 597 P_____O__PP_P_ SH071969 -13.20 107.67 -1 -13.00 108.00 1001 4 -13.20 107.67 TC -13.20 107.64 1 -13.00 107.87 TC 25 1001 2 270
1969 SI WA 03:00:00 TS -13.10 107.75 598 598 P_____P__PP_P_ SH071969 -13.21 107.61 -1 -13.00 107.96 -13.21 107.61 TC -13.19 107.58 1 -13.00 107.80 TC 25 1001 2 272
1969 SI WA 06:00:00 TS -13.09 107.65 600 600 O_____P__OP_O_ jtwc_sh SH071969 -13.20 107.50 -1 -13.00 107.87 -13.20 107.50 TC -13.16 107.47 1 -13.00 107.70 TC 25 1001 2 278
1969 SI WA 09:00:00 TS -13.07 107.54 601 601 P_____P__PP_P_ SH071969 -13.16 107.39 -1 -13.00 107.77 -13.16 107.39 TC -13.13 107.37 1 -13.00 107.60 TC 25 1001 2 283
1969 SI WA 11:00:00 TS -13.06 107.47 601 592 P_____P__PO_P_ SH071969 -13.12 107.33 -1 -13.00 107.70 -13.12 107.33 TC -13.10 107.30 1 -13.00 107.53 TC 25 1001 2 285
1969 SI WA 12:00:00 TS -13.05 107.44 592 592 O_____P__OP_O_ jtwc_sh SH071969 -13.10 107.30 -1 -13.00 107.66 -13.10 107.30 TC -13.09 107.28 1 -13.00 107.50 TC 25 1002 2 287
1969 SI WA 15:00:00 TS -13.02 107.36 592 592 P_____P__PP_P_ SH071969 -13.05 107.26 -1 -13.00 107.53 -13.05 107.26 TC -13.05 107.23 1 -13.00 107.41 TC 25 1002 2 287
1969 SI WA 18:00:00 TS -13.00 107.27 594 594 O_____P__OP_O_ jtwc_sh SH071969 -13.00 107.20 -1 -13.00 107.41 -13.00 107.20 TC -13.00 107.17 1 -13.00 107.30 TC 25 1002 2 283
1969 SI WA 21:00:00 TS -12.98 107.15 597 597 P_____P__PP_P_ SH071969 -12.96 107.08 -1 -13.00 107.27 -12.96 107.08 TC -12.94 107.09 1 -13.00 107.15 TC 25 1002 3 281
1969 SI WA 23:00:00 TS -12.96 107.05 598 588 P_____P__PO_P_ SH071969 -12.92 106.97 -1 -13.00 107.19 -12.92 106.97 TC -12.90 107.00 1 -13.00 107.05 TC 25 1002 3 282
1969 SI WA 1968-12-23 00:00:00 TS -12.95 107.00 588 588 O_____P__OP_O_ jtwc_sh SH071969 -12.90 106.90 -1 -13.00 107.14 -12.90 106.90 TC -12.87 106.94 1 -13.00 107.00 TC 25 1003 3 285
1969 SI WA 01:00:00 TS -12.93 106.94 1003 bom 590 590 P_____O__PP_P_ SH071969 -12.87 106.83 -1 -13.00 107.10 1003 -12.87 106.83 TC -12.84 106.87 1 -13.00 106.96 TC 25 1003 4 286
1969 SI WA 03:00:00 TS -12.90 106.82 592 586 P_____P__PP_P_ SH071969 -12.80 106.66 -1 -13.00 107.02 -12.80 106.66 TC -12.78 106.72 1 -13.00 106.89 TC 25 1003 4 286
1969 SI WA 06:00:00 TS -12.85 106.63 586 586 O_____P__OP_O_ jtwc_sh SH071969 -12.70 106.40 -1 -13.00 106.89 -12.70 106.40 TC -12.68 106.45 1 -13.00 106.80 TC 25 1003 4 283
1969 SI WA 09:00:00 TS -12.81 106.45 591 591 P_____P__PP_P_ SH071969 -12.63 106.14 -1 -13.00 106.78 -12.63 106.14 TC -12.62 106.18 1 -13.00 106.70 TC 25 1003 4 279
1969 SI WA 11:00:00 TS -12.80 106.33 594 594 P_____P__PO_P_ SH071969 -12.60 105.98 -1 -13.00 106.70 -12.60 105.98 TC -12.60 106.00 1 -13.00 106.63 TC 25 1003 4 277
1969 SI WA 12:00:00 TS -12.79 106.26 594 594 O_____P__OP_O_ jtwc_sh SH071969 -12.60 105.90 -1 -13.00 106.66 -12.60 105.90 TC -12.59 105.93 1 -13.00 106.60 TC 25 1003 4 273
1969 SI WA 15:00:00 TS -12.79 106.08 600 600 P_____P__PP_P_ SH071969 -12.62 105.70 -1 -13.00 106.55 -12.62 105.70 TC -12.60 105.74 1 -13.00 106.50 TC 25 1003 3 265
1969 SI WA 18:00:00 TS -12.82 105.90 607 607 O_____P__OP_O_ jtwc_sh SH071969 -12.70 105.50 -1 -13.00 106.45 -12.70 105.50 TC -12.66 105.54 1 -13.00 106.40 TC 25 1003 4 258
1969 SI WA 21:00:00 TS -12.88 105.67 620 620 P_____P__PP___ SH071969 -12.81 105.28 -1 -13.00 106.34 -12.81 105.28 TC -12.78 105.30 1 TC 6 255
1969 SI WA 23:00:00 TS -12.94 105.44 625 625 P_____P__PO___ SH071969 -12.93 105.10 -1 -13.00 106.27 -12.93 105.10 TC -12.90 105.10 1 TC 9 254
1969 SI WA 1968-12-24 00:00:00 TS -12.99 105.24 640 640 O_____P__OP___ jtwc_sh SH071969 -13.00 105.00 -1 -13.00 106.24 -13.00 105.00 TC -12.98 104.99 1 14 254
1969 SI WA 01:00:00 TS -13.07 104.98 1003 bom 656 656 P_____O__PP___ SH071969 -13.08 104.89 -1 -13.00 106.20 1003 -13.08 104.89 TC -13.06 104.86 1 13 245
1969 SI WA 03:00:00 TS -13.27 104.63 689 689 P________PP___ SH071969 -13.28 104.64 -1 -13.28 104.64 TC -13.26 104.60 1 11 236
1969 SI WA 06:00:00 TS -13.59 104.18 734 734 O________OP___ jtwc_sh SH071969 -13.60 104.20 -1 -13.60 104.20 TC -13.58 104.15 1 11 236
1969 SI WA 09:00:00 TS -13.91 103.67 785 785 P________PP___ SH071969 -13.92 103.67 -1 -13.92 103.67 TC -13.90 103.65 1 12 239
1969 SI WA 11:00:00 TS -14.11 103.29 823 823 P________PO___ SH071969 -14.11 103.29 -1 -14.11 103.29 TC -14.10 103.30 1 12 242
1969 SI WA 12:00:00 TS -14.19 103.11 842 842 O________OP___ jtwc_sh SH071969 -14.20 103.10 -1 -14.20 103.10 TC -14.19 103.12 1 12 247
1969 SI WA 15:00:00 TS -14.41 102.55 887 887 P________PP___ SH071969 -14.42 102.54 -1 -14.42 102.54 TC -14.41 102.56 1 12 250
1969 SI WA 18:00:00 TS -14.59 101.99 938 938 O________OP___ jtwc_sh SH071969 -14.60 102.00 -1 -14.60 102.00 TC -14.58 101.98 1 12 255
1969 SI WA 21:00:00 NR -14.72 101.40 977 977 __________P___ SH071969 -1 TC -14.72 101.40 1 12 257
1969 SI WA 23:00:00 NR -14.80 101.00 1006 __________O___ SH071969 -1 TC -14.80 101.00 1 12 258